createdAt,value
2023-02-13T04:02:10.569Z,18.57
2023-02-13T04:04:50.284Z,18.97
2023-02-13T04:07:32.202Z,18.83
2023-02-13T04:10:10.962Z,17.50
2023-02-13T04:12:56.970Z,17.27
2023-02-13T04:15:33.297Z,18.40
2023-02-13T04:18:22.504Z,18.07
2023-02-13T04:20:49.869Z,19.40
2023-02-13T04:23:17.201Z,17.33
2023-02-13T04:25:48.757Z,17.43
2023-02-13T04:28:16.188Z,17.17
2023-02-13T04:30:43.540Z,17.17
2023-02-13T04:33:10.760Z,20.23
2023-02-13T04:35:38.190Z,17.63
2023-02-13T04:38:05.516Z,19.03
2023-02-13T04:40:33.037Z,17.03
2023-02-13T04:43:00.338Z,16.33
2023-02-13T04:45:27.647Z,15.83
2023-02-13T04:47:57.042Z,14.80
2023-02-13T04:50:25.029Z,15.30
2023-02-13T04:52:57.193Z,18.80
2023-02-13T04:55:26.413Z,16.30
2023-02-13T04:57:54.975Z,14.57
2023-02-13T05:00:24.260Z,15.47
2023-02-13T05:02:51.711Z,15.20
2023-02-13T05:05:20.038Z,15.23
2023-02-13T05:07:47.261Z,15.47
2023-02-13T05:10:14.447Z,16.70
2023-02-13T05:12:41.616Z,14.57
2023-02-13T05:15:09.318Z,14.80
2023-02-13T05:17:36.517Z,14.40
2023-02-13T05:20:03.824Z,15.70
2023-02-13T05:22:49.728Z,13.93
2023-02-13T05:25:17.092Z,14.03
2023-02-13T05:27:44.279Z,15.37
2023-02-13T05:30:12.340Z,14.00
2023-02-13T05:32:39.611Z,15.67
2023-02-13T05:35:07.145Z,13.20
2023-02-13T05:37:34.396Z,13.60
2023-02-13T05:40:01.542Z,13.13
2023-02-13T05:42:28.759Z,14.07
2023-02-13T05:44:55.878Z,13.33
2023-02-13T05:47:23.074Z,12.73
2023-02-13T05:49:50.254Z,13.33
2023-02-13T05:52:17.405Z,13.30
2023-02-13T05:54:44.857Z,14.17
2023-02-13T05:57:12.027Z,14.03
2023-02-13T05:59:39.230Z,14.20
2023-02-13T06:02:06.423Z,13.30
2023-02-13T06:04:33.537Z,13.07
2023-02-13T06:07:00.821Z,13.53
2023-02-13T06:09:27.984Z,13.97
2023-02-13T06:11:55.253Z,12.53
2023-02-13T06:14:22.401Z,12.90
2023-02-13T06:16:49.626Z,13.17
2023-02-13T06:19:16.766Z,14.00
2023-02-13T06:21:43.918Z,13.70
2023-02-13T06:24:11.077Z,13.23
2023-02-13T06:26:38.362Z,13.30
2023-02-13T06:29:06.771Z,13.90
2023-02-13T06:31:34.088Z,13.77
2023-02-13T06:34:01.409Z,14.27
2023-02-13T06:36:28.624Z,12.40
2023-02-13T06:38:55.857Z,13.17
2023-02-13T06:41:23.020Z,13.70
2023-02-13T06:43:50.533Z,13.17
2023-02-13T06:46:17.725Z,13.77
2023-02-13T06:48:44.922Z,14.17
2023-02-13T06:51:12.061Z,13.60
2023-02-13T06:53:39.685Z,12.10
2023-02-13T06:56:07.098Z,13.03
2023-02-13T06:58:34.556Z,13.53
2023-02-13T07:01:01.828Z,12.43
2023-02-13T07:03:29.048Z,13.20
2023-02-13T07:05:56.634Z,13.33
2023-02-13T07:08:23.968Z,14.33
2023-02-13T07:10:51.174Z,13.47
2023-02-13T07:13:18.325Z,12.97
2023-02-13T07:15:45.525Z,13.27
2023-02-13T07:18:12.745Z,13.33
2023-02-13T07:20:40.096Z,14.43
2023-02-13T07:23:07.848Z,16.30
2023-02-13T07:25:35.215Z,14.07
2023-02-13T07:28:06.454Z,15.30
2023-02-13T07:30:34.710Z,15.80
2023-02-13T07:33:05.462Z,14.87
2023-02-13T07:35:33.162Z,14.30
2023-02-13T07:38:00.785Z,15.37
2023-02-13T07:40:28.377Z,14.97
2023-02-13T07:42:56.227Z,15.40
2023-02-13T07:45:23.409Z,15.90
2023-02-13T07:47:50.612Z,13.77
2023-02-13T07:50:17.968Z,15.87
2023-02-13T07:52:45.127Z,14.17
2023-02-13T07:55:12.286Z,14.20
2023-02-13T07:57:39.502Z,16.67
2023-02-13T08:00:07.322Z,13.57
2023-02-13T08:02:34.593Z,14.20
2023-02-13T08:05:01.712Z,14.67
2023-02-13T08:07:28.919Z,15.27
2023-02-13T08:10:34.514Z,17.03
2023-02-13T08:13:01.797Z,16.27
2023-02-13T08:15:29.167Z,14.70
2023-02-13T08:17:56.537Z,16.80
2023-02-13T08:20:26.591Z,16.77
2023-02-13T08:22:53.811Z,15.97
2023-02-13T08:25:21.111Z,15.53
2023-02-13T08:27:48.281Z,15.23
2023-02-13T08:30:15.677Z,16.77
2023-02-13T08:32:53.928Z,16.53
2023-02-13T08:35:22.894Z,18.20
2023-02-13T08:37:50.147Z,18.00
2023-02-13T08:40:17.490Z,16.77
2023-02-13T08:42:44.812Z,17.10
2023-02-13T08:45:12.019Z,15.90
2023-02-13T08:47:39.984Z,15.80
2023-02-13T08:50:07.853Z,14.00
2023-02-13T08:52:35.570Z,14.80
2023-02-13T08:55:03.534Z,15.87
2023-02-13T08:57:31.421Z,17.33
2023-02-13T08:59:58.782Z,17.13
2023-02-13T09:02:26.117Z,15.70
2023-02-13T09:04:53.586Z,16.30
2023-02-13T09:07:21.000Z,16.73
2023-02-13T09:09:48.201Z,16.23
2023-02-13T09:12:15.632Z,16.50
2023-02-13T09:14:42.798Z,16.33
2023-02-13T09:17:10.016Z,15.50
2023-02-13T09:19:37.170Z,16.67
2023-02-13T09:22:04.384Z,16.27
2023-02-13T09:24:31.699Z,17.17
2023-02-13T09:26:58.893Z,16.57
2023-02-13T09:29:30.284Z,15.97
2023-02-13T09:31:57.716Z,16.30
2023-02-13T09:34:25.048Z,15.53
2023-02-13T09:36:55.256Z,17.10
2023-02-13T09:39:22.466Z,17.07
2023-02-13T09:41:53.292Z,18.50
2023-02-13T09:44:34.362Z,18.20
2023-02-13T09:47:28.908Z,18.70
2023-02-13T09:50:19.122Z,16.60
2023-02-13T09:52:47.799Z,16.40
2023-02-13T09:55:52.897Z,16.03
2023-02-13T09:58:46.468Z,17.73
2023-02-13T10:01:33.997Z,14.43
2023-02-13T10:04:10.224Z,14.43
2023-02-13T10:06:50.070Z,16.10
2023-02-13T10:09:33.309Z,16.20
2023-02-13T10:12:15.349Z,15.90
2023-02-13T10:14:52.292Z,16.13
2023-02-13T10:17:34.033Z,14.97
2023-02-13T10:20:24.071Z,14.93
2023-02-13T10:23:13.916Z,15.30
2023-02-13T10:25:58.949Z,15.70
2023-02-13T10:28:35.417Z,15.03
2023-02-13T10:31:13.852Z,13.97
2023-02-13T10:33:43.821Z,13.50
2023-02-13T10:36:11.081Z,13.20
2023-02-13T10:38:56.776Z,13.00
2023-02-13T10:41:53.666Z,13.10
2023-02-13T10:44:39.415Z,12.57
2023-02-13T10:47:25.131Z,11.37
2023-02-13T10:49:58.670Z,11.33
2023-02-13T10:52:49.614Z,11.53
2023-02-13T10:55:40.280Z,10.83
2023-02-13T10:58:19.406Z,11.47
2023-02-13T11:01:14.556Z,10.23
2023-02-13T11:03:41.885Z,10.90
2023-02-13T11:06:14.629Z,9.97
2023-02-13T11:08:47.499Z,10.20
2023-02-13T11:11:35.191Z,10.20
2023-02-13T11:14:09.832Z,10.27
2023-02-13T11:16:53.761Z,10.27
2023-02-13T11:19:34.540Z,11.10
2023-02-13T11:22:05.972Z,10.40
2023-02-13T11:24:33.799Z,10.20
2023-02-13T11:27:09.142Z,9.43
2023-02-13T11:29:50.482Z,10.07
2023-02-13T11:32:19.694Z,9.87
2023-02-13T11:34:50.489Z,9.10
2023-02-13T11:37:20.749Z,9.30
2023-02-13T11:39:51.393Z,9.00
2023-02-13T11:42:34.628Z,9.30
2023-02-13T11:45:04.252Z,8.87
2023-02-13T11:47:43.167Z,8.90
2023-02-13T11:50:30.137Z,8.70
2023-02-13T11:53:03.077Z,8.80
2023-02-13T11:55:38.110Z,8.20
2023-02-13T11:58:25.104Z,7.53
2023-02-13T12:01:20.042Z,8.00
2023-02-13T12:04:16.184Z,8.33
2023-02-13T12:07:03.027Z,8.50
2023-02-13T12:09:31.360Z,8.27
2023-02-13T12:12:02.614Z,8.40
2023-02-13T12:14:36.977Z,6.73
2023-02-13T12:17:19.175Z,6.93
2023-02-13T12:19:56.984Z,5.47
2023-02-13T12:22:47.627Z,6.17
2023-02-13T12:25:27.076Z,6.00
2023-02-13T12:28:17.976Z,6.43
2023-02-13T12:31:05.704Z,6.87
2023-02-13T12:33:47.993Z,7.77
2023-02-13T12:36:24.930Z,7.40
2023-02-13T12:39:28.738Z,7.47
2023-02-13T12:42:20.832Z,8.15
2023-02-13T12:45:11.239Z,7.73
2023-02-13T12:48:04.314Z,8.37
2023-02-13T12:50:51.660Z,8.50
2023-02-13T12:53:53.762Z,8.40
2023-02-13T12:56:23.939Z,7.80
2023-02-13T12:58:51.056Z,11.20
2023-02-13T13:01:31.087Z,13.70
2023-02-13T13:03:58.297Z,13.97
2023-02-13T13:06:56.977Z,15.50
2023-02-13T13:09:41.519Z,13.40
2023-02-13T13:12:28.098Z,14.77
2023-02-13T13:15:22.046Z,15.18
2023-02-13T13:18:07.616Z,14.80
2023-02-13T13:21:02.016Z,14.23
2023-02-13T13:24:01.183Z,13.03
2023-02-13T13:26:37.031Z,13.32
2023-02-13T13:29:11.122Z,12.40
2023-02-13T13:31:39.016Z,13.30
2023-02-13T13:34:13.588Z,13.97
2023-02-13T13:37:20.968Z,13.32
2023-02-13T13:39:48.055Z,13.10
2023-02-13T13:42:41.548Z,13.77
2023-02-13T13:45:11.756Z,13.50
2023-02-13T13:47:50.818Z,13.93
2023-02-13T13:50:27.474Z,14.07
2023-02-13T13:53:11.223Z,13.47
2023-02-13T13:55:50.034Z,14.65
2023-02-13T13:58:43.962Z,13.18
2023-02-13T14:01:23.074Z,13.93
2023-02-13T14:03:51.745Z,13.75
2023-02-13T14:06:24.521Z,13.38
2023-02-13T14:08:58.283Z,13.45
2023-02-13T14:11:46.522Z,13.37
2023-02-13T14:14:29.288Z,13.67
2023-02-13T14:16:58.388Z,13.50
2023-02-13T14:19:40.408Z,13.47
2023-02-13T14:22:19.725Z,14.43
2023-02-13T14:25:02.483Z,14.02
2023-02-13T14:27:39.335Z,13.95
2023-02-13T14:30:28.455Z,14.73
2023-02-13T14:32:56.037Z,14.48
2023-02-13T14:35:35.618Z,15.80
2023-02-13T14:38:17.933Z,16.50
2023-02-13T14:40:49.464Z,16.05
2023-02-13T14:43:29.002Z,14.97
2023-02-13T14:45:57.855Z,14.82
2023-02-13T14:48:56.813Z,15.33
2023-02-13T14:51:35.902Z,15.07
2023-02-13T14:54:08.370Z,15.57
2023-02-13T14:56:38.850Z,16.13
2023-02-13T14:59:15.470Z,15.90
2023-02-13T15:01:53.693Z,16.53
2023-02-13T15:04:37.669Z,16.83
2023-02-13T15:07:06.912Z,15.97
2023-02-13T15:09:40.646Z,16.23
2023-02-13T15:12:34.212Z,16.57
2023-02-13T15:15:02.842Z,17.00
2023-02-13T15:17:38.168Z,17.67
2023-02-13T15:20:21.814Z,17.33
2023-02-13T15:22:49.077Z,17.17
2023-02-13T15:25:32.818Z,17.90
2023-02-13T15:28:02.262Z,17.07
2023-02-13T15:30:38.851Z,17.60
2023-02-13T15:33:19.411Z,17.10
2023-02-13T15:35:46.754Z,18.17
2023-02-13T15:38:24.362Z,18.73
2023-02-13T15:40:53.800Z,17.77
2023-02-13T15:43:48.549Z,18.73
2023-02-13T15:46:21.734Z,18.33
2023-02-13T15:48:49.314Z,17.63
2023-02-13T15:51:30.018Z,17.93
2023-02-13T15:54:06.320Z,18.07
2023-02-13T15:56:35.346Z,18.47
2023-02-13T15:59:03.912Z,18.27
2023-02-13T16:01:31.933Z,18.63
2023-02-13T16:04:12.340Z,18.43
2023-02-13T16:06:43.000Z,18.70
2023-02-13T16:09:25.260Z,17.90
2023-02-13T16:12:00.113Z,19.70
2023-02-13T16:14:29.154Z,19.80
2023-02-13T16:17:16.129Z,18.60
2023-02-13T16:19:52.643Z,18.07
2023-02-13T16:22:42.861Z,18.30
2023-02-13T16:25:13.060Z,18.70
2023-02-13T16:27:47.715Z,18.13
2023-02-13T16:30:27.211Z,18.93
2023-02-13T16:33:16.065Z,20.07
2023-02-13T16:36:12.657Z,18.73
2023-02-13T16:38:43.805Z,19.70
2023-02-13T16:41:20.032Z,19.60
2023-02-13T16:43:54.214Z,19.43
2023-02-13T16:46:27.346Z,18.93
2023-02-13T16:48:57.509Z,19.80
2023-02-13T16:51:29.589Z,19.97
2023-02-13T16:54:06.434Z,19.67
2023-02-13T16:56:50.267Z,19.17
2023-02-13T16:59:17.390Z,20.30
2023-02-13T17:01:44.579Z,20.27
2023-02-13T17:04:23.683Z,18.30
2023-02-13T17:06:57.007Z,19.73
2023-02-13T17:09:24.417Z,19.27
2023-02-13T17:11:52.769Z,20.37
2023-02-13T17:14:20.440Z,20.73
2023-02-13T17:16:48.744Z,19.53
2023-02-13T17:19:15.962Z,20.60
2023-02-13T17:21:43.363Z,20.03
2023-02-13T17:24:17.448Z,20.67
2023-02-13T17:26:44.666Z,20.43
2023-02-13T17:29:11.887Z,20.73
2023-02-13T17:31:39.302Z,19.97
2023-02-13T17:34:06.593Z,20.47
2023-02-13T17:36:33.762Z,19.93
2023-02-13T17:39:00.913Z,19.53
2023-02-13T17:41:28.071Z,20.00
2023-02-13T17:43:55.255Z,19.83
2023-02-13T17:46:22.524Z,19.33
2023-02-13T17:48:49.793Z,19.87
2023-02-13T17:51:16.987Z,20.17
2023-02-13T17:53:44.295Z,20.63
2023-02-13T17:56:11.472Z,20.87
2023-02-13T17:58:38.624Z,22.73
2023-02-13T18:01:05.797Z,22.20
2023-02-13T18:03:33.024Z,23.20
2023-02-13T18:06:00.227Z,23.80
2023-02-13T18:08:27.431Z,22.37
2023-02-13T18:10:54.634Z,21.53
2023-02-13T18:13:21.909Z,23.03
2023-02-13T18:15:49.210Z,21.10
2023-02-13T18:18:17.612Z,20.73
2023-02-13T18:20:45.088Z,20.17
2023-02-13T18:23:13.941Z,21.00
2023-02-13T18:25:41.148Z,21.90
2023-02-13T18:28:08.307Z,21.43
2023-02-13T18:30:35.500Z,20.80
2023-02-13T18:33:04.979Z,22.90
2023-02-13T18:35:33.372Z,25.53
2023-02-13T18:38:00.623Z,23.60
2023-02-13T18:40:27.863Z,23.50
2023-02-13T18:42:55.228Z,22.07
2023-02-13T18:45:22.447Z,23.13
2023-02-13T18:47:49.696Z,21.90
2023-02-13T18:50:17.053Z,20.87
2023-02-13T18:52:44.271Z,22.20
2023-02-13T18:55:11.434Z,20.17
2023-02-13T18:57:43.265Z,20.07
2023-02-13T19:00:11.249Z,20.73
2023-02-13T19:02:38.509Z,20.97
2023-02-13T19:05:06.392Z,21.83
2023-02-13T19:07:33.633Z,21.73
2023-02-13T19:10:00.880Z,21.63
2023-02-13T19:12:28.164Z,19.33
2023-02-13T19:14:55.405Z,22.63
2023-02-13T19:17:22.574Z,22.00
2023-02-13T19:19:50.406Z,21.97
2023-02-13T19:22:17.946Z,19.20
2023-02-13T19:24:45.123Z,19.43
2023-02-13T19:27:12.305Z,19.13
2023-02-13T19:29:39.495Z,21.00
2023-02-13T19:32:06.669Z,20.37
2023-02-13T19:34:33.889Z,21.67
2023-02-13T19:37:01.035Z,20.07
2023-02-13T19:39:28.195Z,19.17
2023-02-13T19:41:55.329Z,22.00
2023-02-13T19:44:22.629Z,24.63
2023-02-13T19:46:49.809Z,23.50
2023-02-13T19:49:17.888Z,23.20
2023-02-13T19:51:46.630Z,20.93
2023-02-13T19:54:14.618Z,22.47
2023-02-13T19:56:41.929Z,20.57
2023-02-13T19:59:13.275Z,21.20
2023-02-13T20:01:42.731Z,23.07
2023-02-13T20:04:11.464Z,24.50
2023-02-13T20:06:39.484Z,25.57
2023-02-13T20:09:09.783Z,24.00
2023-02-13T20:11:37.906Z,26.33
2023-02-13T20:14:05.402Z,25.80
2023-02-13T20:16:35.479Z,28.03
2023-02-13T20:19:06.954Z,23.70
2023-02-13T20:21:35.337Z,22.23
2023-02-13T20:24:03.250Z,22.30
2023-02-13T20:26:30.866Z,23.60
2023-02-13T20:29:01.065Z,22.10
2023-02-13T20:31:29.855Z,25.47
2023-02-13T20:33:58.541Z,24.60
2023-02-13T20:36:28.876Z,23.10
2023-02-13T20:38:59.485Z,22.40
2023-02-13T20:41:29.130Z,22.90
2023-02-13T20:44:02.439Z,22.43
2023-02-13T20:46:35.044Z,22.80
2023-02-13T20:49:02.335Z,25.13
2023-02-13T20:51:29.683Z,21.23
2023-02-13T20:53:57.187Z,23.90
2023-02-13T20:56:26.352Z,21.27
2023-02-13T20:58:56.262Z,22.40
2023-02-13T21:01:29.567Z,23.90
2023-02-13T21:03:57.607Z,22.93
2023-02-13T21:06:26.723Z,24.27
2023-02-13T21:08:54.479Z,22.40
2023-02-13T21:11:22.342Z,21.90
2023-02-13T21:13:49.986Z,22.07
2023-02-13T21:16:37.558Z,22.03
2023-02-13T21:19:07.759Z,23.00
2023-02-13T21:21:37.143Z,25.53
2023-02-13T21:24:08.364Z,22.60
2023-02-13T21:26:36.327Z,21.73
2023-02-13T21:29:04.708Z,19.97
2023-02-13T21:31:34.969Z,22.87
2023-02-13T21:34:07.691Z,22.37
2023-02-13T21:36:36.647Z,22.27
2023-02-13T21:39:04.775Z,22.17
2023-02-13T21:41:31.911Z,21.80
2023-02-13T21:43:59.043Z,22.07
2023-02-13T21:46:28.970Z,22.13
2023-02-13T21:48:58.588Z,24.90
2023-02-13T21:51:28.783Z,23.13
2023-02-13T21:53:56.714Z,23.70
2023-02-13T21:56:26.955Z,22.00
2023-02-13T21:58:54.564Z,19.83
